Walkerton, Indiana
Current Conditions -  °F | °C
As of 7:35 AM on Monday 22 Dec 2014 (Local Time) from KOXI Reporting Station
Overcast Overcast  
Wind Chill: 23°   Ceiling: 9500
Heat Index: 31°   Visibility: 5mi
Dew Point: 24°   Wind: 9mph
Humidity: 77%   Direction: 120°ESE
Pressure: 29.97"   Gusts: NA
Location:  41.47°N, 86.48°W
Report Text: KOXI 221235Z AUTO 12008KT 5SM SCT070 OVC095 M01/M04 A2997 RMK AO1 T10071043
Loading
Personal Weather Stations






























Interactive Weather Map New forecast layout! Learn more

10-Day Weather Forecast

Advertisements
Track Severe Weather on mobile